Time;durP1;ratioP1;P1;durP2;ratioP2;P2;SDS_P1;SDS_P2;PMS_P1;PMS_P2;Temp;Humidity;BMP_temperature;BMP_pressure;BME280_temperature;BME280_humidity;BME280_pressure;Samples;Min_cycle;Max_cycle;Signal;HPM_P1;HPM_P2
2024/04/18 00:02:22;;;;;;;12.77;10.50;;;9.50;99.90;;;;;;5528422;25;20742;-59
2024/04/18 00:04:47;;;;;;;11.67;9.90;;;9.40;99.90;;;;;;5526765;25;20442;-59
2024/04/18 00:07:16;;;;;;;11.40;9.87;;;9.40;99.90;;;;;;5528246;25;20921;-59
2024/04/18 00:09:42;;;;;;;13.30;10.20;;;9.30;99.90;;;;;;5528178;25;20229;-58
2024/04/18 00:12:13;;;;;;;11.30;9.87;;;9.40;99.90;;;;;;5528496;25;20910;-58
2024/04/18 00:14:39;;;;;;;11.83;10.67;;;9.30;99.90;;;;;;5528147;25;20252;-58
2024/04/18 00:17:07;;;;;;;12.67;10.90;;;9.30;99.90;;;;;;5528026;25;20458;-58
2024/04/18 00:19:33;;;;;;;12.77;11.57;;;9.20;99.90;;;;;;5527989;25;20237;-58
2024/04/18 00:22:03;;;;;;;11.47;10.30;;;9.20;99.90;;;;;;5527894;25;20535;-58
2024/04/18 00:24:29;;;;;;;12.07;10.80;;;9.20;99.90;;;;;;5527970;25;20556;-58
2024/04/18 00:26:57;;;;;;;13.30;10.80;;;9.20;99.90;;;;;;5527858;25;21137;-58
2024/04/18 00:29:26;;;;;;;13.03;11.40;;;9.20;99.90;;;;;;5527944;25;21019;-58
2024/04/18 00:31:54;;;;;;;13.87;12.47;;;9.20;99.90;;;;;;5527773;25;20443;-58
2024/04/18 00:34:20;;;;;;;12.20;10.90;;;9.20;99.90;;;;;;5527823;25;20450;-58
2024/04/18 00:36:48;;;;;;;14.23;12.80;;;9.20;99.90;;;;;;5527835;25;20798;-58
2024/04/18 00:39:14;;;;;;;12.07;10.87;;;9.10;99.90;;;;;;5527485;25;20237;-58
2024/04/18 00:41:43;;;;;;;11.27;9.60;;;9.10;99.90;;;;;;5527653;25;20529;-58
2024/04/18 00:44:10;;;;;;;10.90;9.80;;;9.10;99.90;;;;;;5527857;25;20252;-58
2024/04/18 00:46:42;;;;;;;10.67;9.37;;;9.10;99.90;;;;;;5527323;25;20502;-58
2024/04/18 00:49:08;;;;;;;11.60;10.37;;;9.10;99.90;;;;;;5527442;25;20469;-58
2024/04/18 00:51:37;;;;;;;10.90;8.67;;;9.00;99.90;;;;;;5527661;25;20525;-58
2024/04/18 00:54:03;;;;;;;10.83;9.73;;;9.00;99.90;;;;;;5527522;25;20802;-58
2024/04/18 00:56:32;;;;;;;10.57;9.13;;;9.00;99.90;;;;;;5527512;25;20446;-58
2024/04/18 00:58:58;;;;;;;9.03;8.10;;;9.00;99.90;;;;;;5527282;25;20567;-58
2024/04/18 01:01:28;;;;;;;10.03;9.03;;;9.00;99.90;;;;;;5527448;25;20466;-58
2024/04/18 01:03:57;;;;;;;12.17;10.60;;;9.00;99.90;;;;;;5527303;25;20568;-58
2024/04/18 01:06:28;;;;;;;10.63;9.43;;;9.00;99.90;;;;;;5527232;25;20438;-58
2024/04/18 01:08:54;;;;;;;10.73;9.50;;;9.00;99.90;;;;;;5527398;25;20462;-58
2024/04/18 01:11:22;;;;;;;12.67;10.70;;;8.90;99.90;;;;;;5527232;25;20497;-58
2024/04/18 01:13:48;;;;;;;11.20;10.00;;;8.90;99.90;;;;;;5527260;25;20450;-58
2024/04/18 01:16:16;;;;;;;11.43;10.23;;;8.90;99.90;;;;;;5526742;25;21031;-58
2024/04/18 01:18:43;;;;;;;9.83;8.60;;;8.90;99.90;;;;;;5527277;25;20573;-58
2024/04/18 01:21:15;;;;;;;11.67;9.30;;;8.90;99.90;;;;;;5526957;25;20458;-58
2024/04/18 01:23:40;;;;;;;13.33;9.43;;;8.90;99.90;;;;;;5527276;25;20567;-58
2024/04/18 01:26:18;;;;;;;9.83;8.83;;;9.00;99.90;;;;;;5527137;25;20461;-58
2024/04/18 01:28:44;;;;;;;15.77;9.27;;;9.00;99.90;;;;;;5527120;25;20309;-58
2024/04/18 01:31:12;;;;;;;10.17;8.90;;;8.90;99.90;;;;;;5526821;25;20462;-58
2024/04/18 01:33:38;;;;;;;14.90;9.70;;;9.00;99.90;;;;;;5526998;25;20217;-58
2024/04/18 01:36:07;;;;;;;10.80;9.70;;;9.00;99.90;;;;;;5526612;25;20490;-58
2024/04/18 01:38:33;;;;;;;9.60;8.60;;;8.90;99.90;;;;;;5526995;25;20233;-57
2024/04/18 01:41:01;;;;;;;11.03;9.37;;;9.00;99.90;;;;;;5526615;25;21007;-58
2024/04/18 01:43:29;;;;;;;11.00;8.10;;;9.00;99.90;;;;;;5526769;25;20229;-58
2024/04/18 01:45:58;;;;;;;9.80;8.80;;;8.90;99.90;;;;;;5526781;25;20506;-58
2024/04/18 01:48:24;;;;;;;9.00;8.10;;;8.80;99.90;;;;;;5526730;25;20458;-58
2024/04/18 01:50:52;;;;;;;9.73;8.73;;;8.80;99.90;;;;;;5526568;25;20466;-59
2024/04/18 01:53:18;;;;;;;8.13;7.33;;;8.80;99.90;;;;;;5526738;25;20229;-58
2024/04/18 01:55:46;;;;;;;9.37;8.43;;;8.80;99.90;;;;;;5526789;25;20494;-58
2024/04/18 01:58:12;;;;;;;7.77;7.00;;;8.80;99.90;;;;;;5526537;25;20218;-58
2024/04/18 02:00:47;;;;;;;7.60;6.80;;;8.70;99.90;;;;;;5526233;25;20852;-58
2024/04/18 02:03:13;;;;;;;8.07;7.20;;;8.70;99.90;;;;;;5526564;25;20251;-58
2024/04/18 02:05:42;;;;;;;5.83;5.27;;;8.70;99.90;;;;;;5526806;25;20977;-58
2024/04/18 02:08:08;;;;;;;6.60;6.10;;;8.60;99.90;;;;;;5526108;25;20229;-59
2024/04/18 02:10:36;;;;;;;6.57;5.70;;;8.60;99.90;;;;;;5525955;25;20571;-58
2024/04/18 02:13:02;;;;;;;7.07;6.30;;;8.60;99.90;;;;;;5525924;25;20228;-58
2024/04/18 02:15:31;;;;;;;6.33;5.80;;;8.60;99.90;;;;;;5526144;25;20500;-58
2024/04/18 02:17:59;;;;;;;5.93;5.43;;;8.50;99.90;;;;;;5525963;25;20257;-58
2024/04/18 02:20:28;;;;;;;8.60;5.90;;;8.50;99.90;;;;;;5525903;25;20462;-59
2024/04/18 02:22:54;;;;;;;8.23;6.57;;;8.50;99.90;;;;;;5525687;25;20453;-58
2024/04/18 02:25:22;;;;;;;7.13;6.20;;;8.50;99.90;;;;;;5525889;25;20510;-58
2024/04/18 02:27:48;;;;;;;6.50;5.90;;;8.50;99.90;;;;;;5524378;25;20217;-58
2024/04/18 02:30:16;;;;;;;7.53;6.83;;;8.50;99.90;;;;;;5525538;25;21066;-58
2024/04/18 02:32:42;;;;;;;7.90;7.10;;;8.40;99.90;;;;;;5525752;25;20248;-57
2024/04/18 02:35:13;;;;;;;7.40;6.70;;;8.40;99.90;;;;;;5525759;25;20433;-57
2024/04/18 02:37:39;;;;;;;8.10;7.27;;;8.40;99.90;;;;;;5525617;25;20707;-57
2024/04/18 02:40:09;;;;;;;7.90;7.10;;;8.40;99.90;;;;;;5525522;25;20579;-57
2024/04/18 02:42:35;;;;;;;8.03;7.23;;;8.40;99.90;;;;;;5525253;25;20727;-56
2024/04/18 02:45:03;;;;;;;9.70;8.07;;;8.40;99.90;;;;;;5525533;25;20622;-58
2024/04/18 02:47:29;;;;;;;8.87;7.50;;;8.30;99.90;;;;;;5525486;25;20210;-56
2024/04/18 02:49:57;;;;;;;11.50;7.33;;;8.30;99.90;;;;;;5525633;25;20678;-57
2024/04/18 02:52:26;;;;;;;8.13;6.83;;;8.30;99.90;;;;;;5525517;25;20313;-57
2024/04/18 02:54:54;;;;;;;7.13;6.43;;;8.30;99.90;;;;;;5525780;25;20489;-57
2024/04/18 02:57:21;;;;;;;7.70;6.90;;;8.30;99.90;;;;;;5525411;25;20450;-56
2024/04/18 02:59:49;;;;;;;7.73;7.00;;;8.30;99.90;;;;;;5525047;25;20474;-58
2024/04/18 03:02:15;;;;;;;8.53;7.53;;;8.30;99.90;;;;;;5524860;25;20445;-57
2024/04/18 03:04:44;;;;;;;7.90;7.10;;;8.30;99.90;;;;;;5525172;25;20551;-58
2024/04/18 03:07:10;;;;;;;10.20;7.60;;;8.30;99.90;;;;;;5525234;25;20267;-59
2024/04/18 03:09:41;;;;;;;7.80;7.10;;;8.30;99.90;;;;;;5524965;25;20476;-58
2024/04/18 03:12:07;;;;;;;8.37;7.50;;;8.30;99.90;;;;;;5525136;25;20217;-58
2024/04/18 03:14:35;;;;;;;13.53;12.07;;;8.30;99.90;;;;;;5524845;25;20490;-57
2024/04/18 03:17:01;;;;;;;26.60;19.97;;;8.20;99.80;;;;;;5524907;25;20490;-57
2024/04/18 03:19:29;;;;;;;30.30;23.57;;;8.20;99.80;;;;;;5524739;25;20975;-57
2024/04/18 03:21:55;;;;;;;29.93;23.20;;;8.20;99.80;;;;;;5524413;25;20222;-57
2024/04/18 03:24:25;;;;;;;19.43;16.80;;;8.20;99.80;;;;;;5524816;25;20442;-57
2024/04/18 03:26:54;;;;;;;16.00;13.87;;;8.10;99.70;;;;;;5524807;25;20313;-59
2024/04/18 03:29:22;;;;;;;12.40;11.10;;;8.10;99.70;;;;;;5524560;25;21010;-58
2024/04/18 03:31:50;;;;;;;11.20;9.93;;;8.00;99.80;;;;;;5524784;25;20547;-58
2024/04/18 03:34:18;;;;;;;18.70;9.00;;;8.00;99.90;;;;;;5524498;25;20557;-57
2024/04/18 03:36:49;;;;;;;9.10;8.20;;;7.90;99.90;;;;;;5524614;25;20446;-58
2024/04/18 03:39:18;;;;;;;8.43;7.43;;;7.90;99.90;;;;;;5525646;25;20509;-57
2024/04/18 03:41:48;;;;;;;8.40;7.50;;;7.80;99.90;;;;;;5528472;25;21039;-58
2024/04/18 03:44:19;;;;;;;9.30;7.90;;;7.80;99.90;;;;;;5528290;25;20458;-57
2024/04/18 03:46:45;;;;;;;9.47;8.47;;;7.80;99.90;;;;;;5528252;25;20566;-58
2024/04/18 03:49:13;;;;;;;8.23;7.43;;;7.80;99.90;;;;;;5528166;25;20442;-57
2024/04/18 03:51:39;;;;;;;9.60;8.67;;;7.80;99.90;;;;;;5528312;25;20225;-58
2024/04/18 03:54:07;;;;;;;12.47;11.27;;;7.80;99.90;;;;;;5528081;25;20498;-58
2024/04/18 03:56:35;;;;;;;11.37;9.77;;;7.90;99.90;;;;;;5528403;25;20221;-58
2024/04/18 03:59:03;;;;;;;11.07;7.97;;;7.90;99.90;;;;;;5527901;25;20792;-57
2024/04/18 04:01:32;;;;;;;8.30;7.50;;;7.90;99.90;;;;;;5527941;25;20461;-57
2024/04/18 04:04:00;;;;;;;8.23;7.43;;;7.90;99.90;;;;;;5527867;25;20587;-57
2024/04/18 04:06:26;;;;;;;9.03;7.10;;;7.90;99.90;;;;;;5528129;25;21093;-57
2024/04/18 04:08:56;;;;;;;8.63;7.73;;;7.90;99.90;;;;;;5527893;25;20466;-58
2024/04/18 04:11:22;;;;;;;14.20;12.50;;;7.90;99.90;;;;;;5527941;25;20217;-57
2024/04/18 04:13:51;;;;;;;12.40;11.07;;;7.90;99.90;;;;;;5528113;25;20857;-57
2024/04/18 04:16:18;;;;;;;9.57;8.50;;;7.90;99.90;;;;;;5527712;25;20329;-57
2024/04/18 04:18:54;;;;;;;9.00;7.30;;;7.90;99.90;;;;;;5527476;25;20559;-57
2024/04/18 04:21:20;;;;;;;9.97;7.90;;;7.90;99.90;;;;;;5527893;25;20442;-58
2024/04/18 04:23:49;;;;;;;8.83;8.00;;;7.90;99.90;;;;;;5527717;25;20502;-58
2024/04/18 04:26:15;;;;;;;11.23;8.03;;;7.90;99.90;;;;;;5527683;25;20446;-58
2024/04/18 04:28:43;;;;;;;8.13;7.37;;;7.90;99.90;;;;;;5527932;25;20493;-57
2024/04/18 04:31:09;;;;;;;10.30;7.10;;;7.90;99.90;;;;;;5527622;25;20241;-57
2024/04/18 04:33:38;;;;;;;8.17;7.17;;;7.90;99.90;;;;;;5527340;25;20446;-57
2024/04/18 04:36:07;;;;;;;11.50;6.93;;;7.90;99.90;;;;;;5527929;25;20454;-58
2024/04/18 04:38:38;;;;;;;9.63;7.57;;;7.90;99.90;;;;;;5527991;25;20497;-58
2024/04/18 04:41:04;;;;;;;9.50;7.27;;;7.90;99.90;;;;;;5527745;25;20454;-57
2024/04/18 04:43:33;;;;;;;15.80;14.20;;;7.90;99.90;;;;;;5527691;25;20453;-57
2024/04/18 04:45:58;;;;;;;20.57;16.73;;;7.90;99.90;;;;;;5527535;25;20457;-57
2024/04/18 04:48:27;;;;;;;10.40;9.40;;;7.90;99.90;;;;;;5527635;25;20563;-58
2024/04/18 04:50:56;;;;;;;10.27;9.27;;;7.90;99.90;;;;;;5526332;25;20230;-57
2024/04/18 04:53:27;;;;;;;9.10;8.20;;;7.80;99.90;;;;;;5527487;25;20846;-58
2024/04/18 04:55:54;;;;;;;8.50;7.60;;;7.90;99.90;;;;;;5527401;25;20458;-57
2024/04/18 04:58:22;;;;;;;7.50;6.80;;;7.80;99.90;;;;;;5527666;25;20976;-58
2024/04/18 05:00:49;;;;;;;7.80;7.00;;;7.80;99.90;;;;;;5527069;25;20514;-57
2024/04/18 05:03:17;;;;;;;8.63;6.70;;;7.90;99.90;;;;;;5527318;25;20446;-57
2024/04/18 05:05:44;;;;;;;8.63;6.90;;;7.90;99.90;;;;;;5527405;25;20559;-57
2024/04/18 05:08:12;;;;;;;10.07;6.23;;;8.00;99.90;;;;;;5527557;25;20540;-57
2024/04/18 05:10:43;;;;;;;6.20;5.40;;;8.10;99.90;;;;;;5527125;25;20571;-57
2024/04/18 05:13:11;;;;;;;10.17;9.17;;;8.10;99.90;;;;;;5527128;25;20583;-58
2024/04/18 05:15:37;;;;;;;10.37;9.27;;;8.30;99.90;;;;;;5526685;25;20902;-57
2024/04/18 05:18:09;;;;;;;8.77;7.10;;;8.30;99.90;;;;;;5527091;25;20457;-57
2024/04/18 05:20:35;;;;;;;7.07;6.43;;;8.40;99.90;;;;;;5527073;25;20293;-58
2024/04/18 05:23:04;;;;;;;6.50;5.90;;;8.40;99.90;;;;;;5526630;25;20540;-57
2024/04/18 05:25:30;;;;;;;6.33;5.73;;;8.50;99.90;;;;;;5527105;25;20461;-56
2024/04/18 05:28:10;;;;;;;5.90;5.33;;;8.50;99.90;;;;;;5527024;25;20457;-57
2024/04/18 05:33:23;;;;;;;7.70;6.80;;;8.50;99.90;;;;;;5530003;26;20543;-58
2024/04/18 05:35:52;;;;;;;7.83;7.03;;;8.50;99.90;;;;;;5526730;25;20442;-57
2024/04/18 05:38:21;;;;;;;9.63;6.60;;;8.50;99.90;;;;;;5526692;25;20601;-57
2024/04/18 05:40:49;;;;;;;6.33;5.03;;;8.60;99.90;;;;;;5527983;25;20470;-61
2024/04/18 05:43:20;;;;;;;6.67;5.20;;;8.60;99.90;;;;;;5528698;25;20442;-59
2024/04/18 05:45:47;;;;;;;6.33;4.90;;;8.60;99.90;;;;;;5530649;25;20533;-58
2024/04/18 05:48:16;;;;;;;5.57;4.70;;;8.60;99.90;;;;;;5530451;25;20837;-58
2024/04/18 05:50:44;;;;;;;4.93;4.53;;;8.60;99.90;;;;;;5527841;25;20552;-57
2024/04/18 05:53:13;;;;;;;5.77;4.93;;;8.70;99.90;;;;;;5526481;25;20450;-57
2024/04/18 05:55:42;;;;;;;5.43;4.53;;;8.80;99.90;;;;;;5526763;25;20895;-57
2024/04/18 05:58:11;;;;;;;4.83;4.17;;;8.80;99.90;;;;;;5526705;25;20453;-57
2024/04/18 06:00:42;;;;;;;6.80;4.70;;;8.90;99.90;;;;;;5526412;25;20462;-58
2024/04/18 06:03:10;;;;;;;5.00;4.07;;;8.90;99.90;;;;;;5524173;25;20506;-56
2024/04/18 06:05:39;;;;;;;4.67;4.23;;;8.90;99.90;;;;;;5526223;25;20454;-57
2024/04/18 06:08:08;;;;;;;5.10;4.33;;;9.00;99.90;;;;;;5526085;25;20454;-57
2024/04/18 06:10:37;;;;;;;4.97;3.83;;;9.10;99.90;;;;;;5526186;25;20877;-57
2024/04/18 06:13:07;;;;;;;6.00;4.03;;;9.10;99.90;;;;;;5526253;25;20505;-57
2024/04/18 06:15:36;;;;;;;10.50;3.97;;;9.20;99.90;;;;;;5526639;25;20446;-57
2024/04/18 06:18:07;;;;;;;6.67;4.57;;;9.20;99.90;;;;;;5526159;25;20446;-57
2024/04/18 06:20:42;;;;;;;6.80;5.10;;;9.30;99.90;;;;;;5525995;25;20873;-57
2024/04/18 06:23:10;;;;;;;7.67;3.73;;;9.30;99.90;;;;;;5526122;25;20490;-58
2024/04/18 06:25:39;;;;;;;8.03;4.20;;;9.30;99.90;;;;;;5526208;25;20446;-58
2024/04/18 06:28:08;;;;;;;4.97;4.17;;;9.30;99.90;;;;;;5526063;25;20450;-57
2024/04/18 06:30:37;;;;;;;7.00;3.50;;;9.40;99.90;;;;;;5525972;25;20462;-58
2024/04/18 06:33:08;;;;;;;5.87;3.53;;;9.40;99.90;;;;;;5526166;25;20458;-57
2024/04/18 06:35:36;;;;;;;5.37;4.17;;;9.50;99.90;;;;;;5525893;25;20555;-57
2024/04/18 06:38:05;;;;;;;4.13;3.33;;;9.40;99.90;;;;;;5525712;25;20450;-57
2024/04/18 06:40:33;;;;;;;5.23;3.27;;;9.50;99.90;;;;;;5525766;25;20518;-57
2024/04/18 06:43:02;;;;;;;6.37;3.20;;;9.50;99.90;;;;;;5525831;25;20975;-57
2024/04/18 06:45:30;;;;;;;6.33;3.13;;;9.50;99.90;;;;;;5526102;25;20446;-57
2024/04/18 06:47:59;;;;;;;4.93;3.23;;;9.70;99.90;;;;;;5526210;25;20490;-57
2024/04/18 06:50:31;;;;;;;8.77;3.67;;;9.80;99.90;;;;;;5526086;25;20477;-57
2024/04/18 06:53:00;;;;;;;3.30;3.00;;;9.90;99.90;;;;;;5526126;25;20446;-58
2024/04/18 06:55:28;;;;;;;5.30;2.80;;;10.10;99.70;;;;;;5526209;25;20890;-56
2024/04/18 06:57:57;;;;;;;4.23;2.73;;;10.20;98.90;;;;;;5525777;25;20442;-57
2024/04/18 07:00:25;;;;;;;7.77;3.03;;;10.30;98.30;;;;;;5525754;25;20466;-56
2024/04/18 07:02:54;;;;;;;4.90;3.07;;;10.40;97.90;;;;;;5525648;25;20862;-57
2024/04/18 07:05:23;;;;;;;5.97;2.60;;;10.50;97.90;;;;;;5525575;25;20458;-57
2024/04/18 07:07:55;;;;;;;3.93;2.57;;;10.60;98.00;;;;;;5525494;25;21075;-57
2024/04/18 07:10:24;;;;;;;6.07;3.57;;;10.70;97.80;;;;;;5525534;25;20567;-57
2024/04/18 07:12:52;;;;;;;5.03;2.77;;;10.80;97.60;;;;;;5525451;25;20852;-58
2024/04/18 07:15:20;;;;;;;5.53;2.40;;;10.90;97.60;;;;;;5528150;25;20562;-57
2024/04/18 07:17:52;;;;;;;4.00;2.63;;;11.10;97.20;;;;;;5529263;25;20567;-57
2024/04/18 07:20:20;;;;;;;5.90;2.87;;;11.10;96.60;;;;;;5529432;25;21074;-57
2024/04/18 07:22:48;;;;;;;7.67;3.37;;;11.20;96.40;;;;;;5529194;25;20555;-56
2024/04/18 07:25:20;;;;;;;5.93;3.17;;;11.20;96.20;;;;;;5528950;25;20442;-57
2024/04/18 07:27:48;;;;;;;7.03;2.40;;;11.30;96.20;;;;;;5528988;25;20490;-57
2024/04/18 07:30:17;;;;;;;4.77;2.87;;;11.30;95.70;;;;;;5528930;25;20921;-57
2024/04/18 07:32:46;;;;;;;5.20;3.00;;;11.30;95.00;;;;;;5529242;25;20454;-57
2024/04/18 07:35:14;;;;;;;5.10;2.80;;;11.20;94.40;;;;;;5528936;25;20539;-56
2024/04/18 07:37:43;;;;;;;5.57;2.90;;;11.20;94.80;;;;;;5528952;25;20450;-57
2024/04/18 07:40:18;;;;;;;4.30;2.80;;;11.30;95.00;;;;;;5528620;25;20458;-57
2024/04/18 07:42:50;;;;;;;5.30;2.57;;;11.40;95.30;;;;;;5528914;25;20509;-57
2024/04/18 07:45:16;;;;;;;8.53;2.83;;;11.60;95.20;;;;;;5528943;25;20990;-57
2024/04/18 07:47:44;;;;;;;8.63;2.43;;;11.80;95.10;;;;;;5529023;25;20497;-56
2024/04/18 07:50:13;;;;;;;3.87;2.17;;;11.90;94.50;;;;;;5528871;25;20477;-57
2024/04/18 07:52:41;;;;;;;5.67;2.60;;;12.00;92.70;;;;;;5528594;25;20548;-57
2024/04/18 07:55:10;;;;;;;4.77;2.10;;;12.10;92.30;;;;;;5528645;25;20442;-57
2024/04/18 07:57:38;;;;;;;6.90;2.40;;;12.20;92.10;;;;;;5528673;25;20466;-57
2024/04/18 08:00:10;;;;;;;5.60;2.20;;;12.30;91.80;;;;;;5528305;25;20462;-56
2024/04/18 08:02:38;;;;;;;4.40;1.97;;;12.50;92.10;;;;;;5528745;25;20491;-57
2024/04/18 08:05:07;;;;;;;4.97;2.50;;;12.60;91.50;;;;;;5528301;25;20498;-57
2024/04/18 08:07:36;;;;;;;2.83;2.50;;;12.70;91.70;;;;;;5528286;25;20544;-57
2024/04/18 08:10:04;;;;;;;4.87;2.67;;;12.90;91.40;;;;;;5528399;25;20478;-57
2024/04/18 08:12:32;;;;;;;4.70;1.93;;;13.00;91.00;;;;;;5528262;25;20450;-57
2024/04/18 08:15:02;;;;;;;5.13;1.80;;;13.20;90.70;;;;;;5528208;25;20595;-57
2024/04/18 08:17:33;;;;;;;3.37;2.30;;;13.50;90.40;;;;;;5528312;25;20445;-57
2024/04/18 08:20:02;;;;;;;8.73;2.47;;;13.60;87.50;;;;;;5528391;25;20454;-57
2024/04/18 08:22:31;;;;;;;4.10;1.67;;;13.70;86.40;;;;;;5528460;25;20454;-57
2024/04/18 08:25:02;;;;;;;5.60;2.13;;;13.70;83.70;;;;;;5528080;25;20567;-57
2024/04/18 08:27:30;;;;;;;4.00;1.97;;;13.70;81.60;;;;;;5527241;25;20875;-57
2024/04/18 08:29:59;;;;;;;3.60;1.57;;;13.80;82.30;;;;;;5527741;25;20458;-57
2024/04/18 08:32:27;;;;;;;6.17;2.07;;;13.90;85.10;;;;;;5527702;25;20514;-56
2024/04/18 08:34:58;;;;;;;4.23;1.50;;;14.00;83.10;;;;;;5527871;25;20446;-57
2024/04/18 08:37:27;;;;;;;3.43;1.83;;;14.00;80.80;;;;;;5527839;25;20446;-57
2024/04/18 08:39:55;;;;;;;5.47;1.80;;;14.20;81.60;;;;;;5527453;25;20525;-57
2024/04/18 08:42:25;;;;;;;3.43;1.43;;;14.40;81.30;;;;;;5527633;25;20494;-57
2024/04/18 08:44:55;;;;;;;4.60;2.00;;;14.60;79.90;;;;;;5527848;25;20524;-57
2024/04/18 08:47:25;;;;;;;4.27;1.60;;;14.70;79.40;;;;;;5527708;25;20462;-57
2024/04/18 08:49:54;;;;;;;4.10;1.50;;;14.80;79.30;;;;;;5527441;25;20562;-56
2024/04/18 08:52:26;;;;;;;4.40;1.27;;;14.90;80.00;;;;;;5527451;25;20458;-57
2024/04/18 08:54:55;;;;;;;3.60;1.63;;;15.10;80.30;;;;;;5527201;25;20451;-57
2024/04/18 08:57:28;;;;;;;9.00;1.77;;;15.30;77.90;;;;;;5527549;25;20887;-57
2024/04/18 09:00:01;;;;;;;3.77;1.50;;;15.60;75.70;;;;;;5527219;25;20482;-57
2024/04/18 09:02:30;;;;;;;4.90;1.67;;;15.90;74.90;;;;;;5527418;25;20450;-57
2024/04/18 09:05:00;;;;;;;4.33;1.73;;;16.00;72.70;;;;;;5527137;25;20450;-56
2024/04/18 09:07:31;;;;;;;4.60;1.40;;;16.20;71.70;;;;;;5527198;25;20446;-57
2024/04/18 09:10:09;;;;;;;3.37;1.70;;;16.30;71.00;;;;;;5526924;25;21026;-57
2024/04/18 09:12:38;;;;;;;6.17;1.80;;;16.30;69.80;;;;;;5527240;25;20574;-57
2024/04/18 09:15:07;;;;;;;4.27;1.37;;;16.40;68.10;;;;;;5526920;25;20506;-57
2024/04/18 09:17:36;;;;;;;2.53;1.37;;;16.50;67.70;;;;;;5526938;25;20454;-57
2024/04/18 09:20:05;;;;;;;3.80;1.50;;;16.70;66.80;;;;;;5527086;25;20478;-57
2024/04/18 09:22:36;;;;;;;2.33;1.27;;;17.00;66.10;;;;;;5527096;25;20442;-57
2024/04/18 09:25:08;;;;;;;4.57;1.10;;;17.30;65.50;;;;;;5527078;25;20446;-57
2024/04/18 09:27:39;;;;;;;3.03;1.33;;;17.50;61.70;;;;;;5527266;25;20466;-57
2024/04/18 09:30:09;;;;;;;3.33;1.10;;;17.60;59.80;;;;;;5526890;25;20506;-57
2024/04/18 09:32:38;;;;;;;1.97;1.40;;;17.60;59.70;;;;;;5526766;25;20844;-57
2024/04/18 09:35:07;;;;;;;2.97;1.13;;;17.70;57.40;;;;;;5526863;25;20565;-57
2024/04/18 09:37:39;;;;;;;2.77;1.10;;;17.70;56.20;;;;;;5526787;25;20442;-57
2024/04/18 09:40:11;;;;;;;1.53;0.97;;;17.90;57.20;;;;;;5526937;25;20569;-57
2024/04/18 09:42:49;;;;;;;1.97;0.83;;;18.10;56.70;;;;;;5526979;25;20580;-57
2024/04/18 09:45:22;;;;;;;3.73;1.40;;;18.30;56.50;;;;;;5527601;25;20509;-57
2024/04/18 09:47:50;;;;;;;3.53;1.00;;;18.50;55.60;;;;;;5527004;25;20454;-56
2024/04/18 09:50:20;;;;;;;5.90;1.20;;;18.70;56.80;;;;;;5526794;25;20466;-56
2024/04/18 09:52:52;;;;;;;3.83;1.30;;;19.10;54.00;;;;;;5526693;25;20908;-55
2024/04/18 09:55:22;;;;;;;2.13;1.03;;;19.40;54.10;;;;;;5526863;25;20458;-56
2024/04/18 09:57:53;;;;;;;3.30;1.13;;;19.90;53.40;;;;;;5526727;25;20443;-56
2024/04/18 10:00:23;;;;;;;3.60;1.27;;;20.20;49.20;;;;;;5526547;25;20501;-55
2024/04/18 10:02:54;;;;;;;2.90;1.20;;;20.40;50.30;;;;;;5526674;25;20458;-56
2024/04/18 10:05:23;;;;;;;3.70;0.83;;;20.40;49.30;;;;;;5526545;25;21108;-56
2024/04/18 10:07:55;;;;;;;2.20;0.80;;;20.20;46.40;;;;;;5526419;25;20567;-56
2024/04/18 10:10:24;;;;;;;3.87;0.93;;;20.10;47.60;;;;;;5526585;25;21019;-55
2024/04/18 10:12:55;;;;;;;2.70;0.80;;;19.80;46.80;;;;;;5526663;25;20995;-56
2024/04/18 10:15:25;;;;;;;1.63;0.70;;;19.60;45.50;;;;;;5526487;25;20510;-56
2024/04/18 10:17:53;;;;;;;1.07;0.60;;;19.80;48.00;;;;;;5526409;25;20491;-56
2024/04/18 10:20:29;;;;;;;1.83;1.00;;;20.30;49.30;;;;;;5526421;25;20466;-56
2024/04/18 10:23:01;;;;;;;3.43;0.80;;;20.50;44.80;;;;;;5526401;25;20437;-56
2024/04/18 10:25:30;;;;;;;1.33;0.50;;;20.70;44.50;;;;;;5526331;25;20818;-56
2024/04/18 10:27:58;;;;;;;1.83;0.70;;;20.80;44.40;;;;;;5526106;25;20446;-56
2024/04/18 10:30:27;;;;;;;2.67;0.77;;;21.40;45.00;;;;;;5525955;25;20548;-56
2024/04/18 10:32:56;;;;;;;2.80;0.87;;;22.10;45.30;;;;;;5526182;25;20442;-56
2024/04/18 10:35:27;;;;;;;1.80;0.70;;;22.80;41.00;;;;;;5526165;25;20556;-57
2024/04/18 10:37:57;;;;;;;1.40;0.73;;;23.10;39.90;;;;;;5526047;25;20528;-56
2024/04/18 10:40:28;;;;;;;3.53;0.70;;;23.00;38.30;;;;;;5525565;25;20542;-56
2024/04/18 10:43:13;;;;;;;1.73;0.73;;;22.90;40.00;;;;;;5526016;25;20453;-56
2024/04/18 10:45:43;;;;;;;2.07;0.83;;;22.70;39.00;;;;;;5525836;25;20461;-56
2024/04/18 10:48:11;;;;;;;2.00;0.73;;;22.30;38.60;;;;;;5525872;25;20458;-57
2024/04/18 10:50:41;;;;;;;2.60;0.70;;;22.40;39.50;;;;;;5528899;25;20458;-56
2024/04/18 10:53:10;;;;;;;1.40;0.70;;;23.10;38.90;;;;;;5529300;25;20446;-56
2024/04/18 10:55:41;;;;;;;2.00;0.90;;;24.20;38.70;;;;;;5529317;25;20490;-56
2024/04/18 10:58:15;;;;;;;2.00;0.80;;;25.10;36.80;;;;;;5529390;25;20458;-57
2024/04/18 11:00:43;;;;;;;3.00;1.20;;;25.90;36.40;;;;;;5529162;25;20454;-57
2024/04/18 11:03:12;;;;;;;1.93;0.80;;;25.90;33.00;;;;;;5529344;25;20939;-57
2024/04/18 11:05:42;;;;;;;2.03;0.87;;;25.20;32.10;;;;;;5529294;25;20462;-57
2024/04/18 11:08:10;;;;;;;1.40;0.83;;;24.30;33.70;;;;;;5529309;25;20457;-57
2024/04/18 11:10:41;;;;;;;1.73;0.70;;;23.70;35.20;;;;;;5529038;25;20572;-56
2024/04/18 11:13:11;;;;;;;1.80;0.67;;;24.00;35.90;;;;;;5529049;25;20450;-56
2024/04/18 11:15:40;;;;;;;1.73;0.63;;;24.90;34.50;;;;;;5529089;25;20449;-56
2024/04/18 11:18:09;;;;;;;2.23;1.00;;;25.90;32.10;;;;;;5529013;25;20450;-57
2024/04/18 11:20:38;;;;;;;2.77;0.97;;;26.40;30.00;;;;;;5528986;25;20473;-57
2024/04/18 11:23:07;;;;;;;3.10;0.97;;;26.70;29.70;;;;;;5529065;25;20493;-57
2024/04/18 11:25:37;;;;;;;4.00;1.00;;;26.30;30.20;;;;;;5528708;25;20494;-57
2024/04/18 11:28:10;;;;;;;1.00;0.90;;;26.10;29.70;;;;;;5528665;25;20442;-57
2024/04/18 11:30:43;;;;;;;4.70;1.20;;;26.30;31.20;;;;;;5528645;25;20477;-57
2024/04/18 11:33:12;;;;;;;1.37;0.80;;;26.10;30.50;;;;;;5528811;25;20442;-56
2024/04/18 11:35:41;;;;;;;2.10;1.20;;;25.70;29.10;;;;;;5528777;25;20450;-57
2024/04/18 11:38:09;;;;;;;2.97;0.70;;;25.30;30.90;;;;;;5528468;25;20571;-57
2024/04/18 11:40:38;;;;;;;1.00;0.60;;;24.80;30.90;;;;;;5528416;25;20454;-57
2024/04/18 11:43:09;;;;;;;1.00;0.60;;;24.90;31.80;;;;;;5528735;25;20450;-56
2024/04/18 11:45:38;;;;;;;3.17;0.70;;;25.70;31.20;;;;;;5528674;25;21032;-57
2024/04/18 11:48:07;;;;;;;1.90;0.80;;;26.40;30.70;;;;;;5528384;25;20563;-57
2024/04/18 11:50:36;;;;;;;1.10;0.50;;;27.40;29.50;;;;;;5528730;25;20462;-57
2024/04/18 11:53:05;;;;;;;1.43;0.60;;;27.30;28.70;;;;;;5528258;25;20462;-57
2024/04/18 11:55:33;;;;;;;1.13;0.63;;;26.60;28.90;;;;;;5528760;25;20494;-56
2024/04/18 11:58:02;;;;;;;1.17;0.60;;;25.70;30.00;;;;;;5528427;25;20442;-57
2024/04/18 12:00:34;;;;;;;2.03;0.70;;;24.70;31.20;;;;;;5526652;25;20596;-56
2024/04/18 12:03:03;;;;;;;4.37;1.40;;;23.70;31.80;;;;;;5528354;25;20490;-56
2024/04/18 12:05:31;;;;;;;4.03;1.10;;;23.00;33.20;;;;;;5528358;25;20458;-56
2024/04/18 12:08:00;;;;;;;1.27;0.90;;;22.60;35.40;;;;;;5528308;25;20462;-56
2024/04/18 12:10:28;;;;;;;3.20;0.80;;;23.20;35.30;;;;;;5528231;25;20470;-57
2024/04/18 12:12:57;;;;;;;2.80;1.00;;;24.40;33.50;;;;;;5527943;25;21054;-57
2024/04/18 12:15:22;;;;;;;3.43;2.57;;;25.90;31.60;;;;;;5528271;25;20447;-57
2024/04/18 12:17:53;;;;;;;2.17;0.80;;;27.40;29.50;;;;;;5528077;25;20506;-57
2024/04/18 12:20:23;;;;;;;3.97;1.00;;;28.60;29.10;;;;;;5528128;25;20233;-57
2024/04/18 12:22:52;;;;;;;2.80;1.00;;;29.90;29.00;;;;;;5528191;25;20462;-57
2024/04/18 12:25:21;;;;;;;2.27;1.20;;;30.40;25.70;;;;;;5527993;25;20504;-57
2024/04/18 12:27:49;;;;;;;2.73;1.00;;;29.80;25.50;;;;;;5528047;25;20835;-57
2024/04/18 12:30:18;;;;;;;2.53;1.03;;;28.80;26.50;;;;;;5527952;25;20477;-57
2024/04/18 12:32:46;;;;;;;3.73;1.30;;;27.90;27.40;;;;;;5527893;25;20559;-56
2024/04/18 12:35:18;;;;;;;1.43;0.80;;;26.70;28.40;;;;;;5527716;25;20797;-56
2024/04/18 12:37:46;;;;;;;2.33;1.13;;;25.60;29.70;;;;;;5527838;25;20546;-56
2024/04/18 12:40:15;;;;;;;1.90;0.90;;;24.60;31.00;;;;;;5527887;25;20457;-56
2024/04/18 12:42:44;;;;;;;2.40;1.10;;;23.70;33.00;;;;;;5527931;25;20526;-56
2024/04/18 12:45:12;;;;;;;1.90;1.50;;;23.00;34.60;;;;;;5527772;25;20462;-56
2024/04/18 12:47:41;;;;;;;2.87;1.40;;;22.80;35.10;;;;;;5527687;25;20502;-56
2024/04/18 12:50:09;;;;;;;3.63;1.30;;;22.30;35.40;;;;;;5527620;25;20571;-56
2024/04/18 12:52:43;;;;;;;5.33;1.60;;;21.80;35.00;;;;;;5527839;25;20871;-56
2024/04/18 12:55:12;;;;;;;3.00;1.27;;;21.30;35.70;;;;;;5527731;25;20446;-56
2024/04/18 12:57:40;;;;;;;2.13;1.13;;;20.80;37.00;;;;;;5527679;25;20446;-56
2024/04/18 13:00:11;;;;;;;1.53;1.10;;;20.50;37.50;;;;;;5527679;25;20568;-56